Skip Navigation LinksHome page > Weather > Current weather Skip Navigation Links

Current Weather

Bom Jesus Da Lapa, Brazil

For information only: do not use for flight planning or navigation.
Latest weather
Observation time Thursday, December 18, 2014 6:00 PM BRST
Local time Thursday, December 18, 2014 6:58 PM BRST
Flight conditions Visual Meteorological Conditions
Winds
Wind direction South-Southeast (150°)
Wind speed 6 mph
Visibility 6.2 mi.
Sky condition
Ceiling unlimited
Cloud layer few clouds 3,000 ft.
Temperature 90°F
Dewpoint 68°F
Altimeter 29.80 in.Hg
Derived measurements
Relative humidity 49%
Heat index 94°F
Density altitude 3843 ft.
METAR SBLP 182000Z 15005KT 9999 FEW030 32/20 Q1009

Settings

Location code

InnerDrive.Weather 4.0.5399.0 Release CLR 4.0.30319.34014
Copyright ©2014 Inner Drive Technology. All rights reserved. Portions Copyright ©1986-2014 David Braverman.

Find weather

Site navigation


Skip Navigation Links

Place info

Page info

PayPal - The safer, easier way to pay online!

Return home.

Copyright ©2014 Inner Drive Technology. Purveyors of fine, hand-crafted computer software. Page printed 2014-12-18T20:58:27 UTC.